sensor_id;sensor_type;location;lat;lon;timestamp;P1;durP1;ratioP1;P2;durP2;ratioP2
4210;SDS011;2119;48.828;12.396;2022-08-20T00:03:19;10.07;;;9.20;;
4210;SDS011;2119;48.828;12.396;2022-08-20T00:08:20;9.90;;;8.90;;
4210;SDS011;2119;48.828;12.396;2022-08-20T00:13:28;9.87;;;8.87;;
4210;SDS011;2119;48.828;12.396;2022-08-20T00:18:29;8.13;;;7.40;;
4210;SDS011;2119;48.828;12.396;2022-08-20T00:23:30;9.03;;;8.23;;
4210;SDS011;2119;48.828;12.396;2022-08-20T00:28:31;9.67;;;8.77;;
4210;SDS011;2119;48.828;12.396;2022-08-20T00:33:31;7.95;;;7.28;;
4210;SDS011;2119;48.828;12.396;2022-08-20T00:38:32;7.67;;;7.17;;
4210;SDS011;2119;48.828;12.396;2022-08-20T00:43:34;8.73;;;8.10;;
4210;SDS011;2119;48.828;12.396;2022-08-20T00:48:35;7.40;;;6.70;;
4210;SDS011;2119;48.828;12.396;2022-08-20T00:53:36;9.60;;;8.80;;
4210;SDS011;2119;48.828;12.396;2022-08-20T00:58:37;7.60;;;6.80;;
4210;SDS011;2119;48.828;12.396;2022-08-20T01:03:37;7.90;;;7.10;;
4210;SDS011;2119;48.828;12.396;2022-08-20T01:08:38;7.10;;;6.50;;
4210;SDS011;2119;48.828;12.396;2022-08-20T01:13:40;7.90;;;7.20;;
4210;SDS011;2119;48.828;12.396;2022-08-20T01:18:40;8.03;;;7.23;;
4210;SDS011;2119;48.828;12.396;2022-08-20T01:23:47;7.43;;;6.87;;
4210;SDS011;2119;48.828;12.396;2022-08-20T01:28:54;7.77;;;7.10;;
4210;SDS011;2119;48.828;12.396;2022-08-20T01:33:55;6.60;;;6.00;;
4210;SDS011;2119;48.828;12.396;2022-08-20T01:38:57;7.53;;;6.50;;
4210;SDS011;2119;48.828;12.396;2022-08-20T01:43:57;6.57;;;6.10;;
4210;SDS011;2119;48.828;12.396;2022-08-20T01:48:58;8.10;;;5.77;;
4210;SDS011;2119;48.828;12.396;2022-08-20T01:53:59;6.67;;;6.17;;
4210;SDS011;2119;48.828;12.396;2022-08-20T01:59:00;6.80;;;6.33;;
4210;SDS011;2119;48.828;12.396;2022-08-20T02:04:01;7.17;;;6.57;;
4210;SDS011;2119;48.828;12.396;2022-08-20T02:09:03;7.57;;;6.97;;
4210;SDS011;2119;48.828;12.396;2022-08-20T02:14:04;6.80;;;6.23;;
4210;SDS011;2119;48.828;12.396;2022-08-20T02:19:08;7.83;;;7.13;;
4210;SDS011;2119;48.828;12.396;2022-08-20T02:24:10;6.13;;;5.73;;
4210;SDS011;2119;48.828;12.396;2022-08-20T02:29:11;7.13;;;6.60;;
4210;SDS011;2119;48.828;12.396;2022-08-20T02:34:12;7.40;;;6.80;;
4210;SDS011;2119;48.828;12.396;2022-08-20T02:39:12;6.30;;;5.80;;
4210;SDS011;2119;48.828;12.396;2022-08-20T02:44:13;7.35;;;6.03;;
4210;SDS011;2119;48.828;12.396;2022-08-20T02:49:13;6.65;;;6.05;;
4210;SDS011;2119;48.828;12.396;2022-08-20T02:54:13;6.90;;;6.45;;
4210;SDS011;2119;48.828;12.396;2022-08-20T02:59:13;6.93;;;6.33;;
4210;SDS011;2119;48.828;12.396;2022-08-20T03:04:14;7.25;;;6.75;;
4210;SDS011;2119;48.828;12.396;2022-08-20T03:09:14;6.33;;;5.83;;
4210;SDS011;2119;48.828;12.396;2022-08-20T03:14:14;6.50;;;6.10;;
4210;SDS011;2119;48.828;12.396;2022-08-20T03:19:14;6.27;;;5.77;;
4210;SDS011;2119;48.828;12.396;2022-08-20T03:24:14;6.50;;;6.00;;
4210;SDS011;2119;48.828;12.396;2022-08-20T03:29:15;7.07;;;6.47;;
4210;SDS011;2119;48.828;12.396;2022-08-20T03:34:15;7.07;;;6.57;;
4210;SDS011;2119;48.828;12.396;2022-08-20T03:39:15;7.33;;;6.70;;
4210;SDS011;2119;48.828;12.396;2022-08-20T03:44:15;6.20;;;5.78;;
4210;SDS011;2119;48.828;12.396;2022-08-20T03:49:15;6.00;;;5.60;;
4210;SDS011;2119;48.828;12.396;2022-08-20T03:54:16;6.70;;;6.20;;
4210;SDS011;2119;48.828;12.396;2022-08-20T03:59:16;5.97;;;5.57;;
4210;SDS011;2119;48.828;12.396;2022-08-20T04:04:16;6.60;;;6.00;;
4210;SDS011;2119;48.828;12.396;2022-08-20T04:09:17;5.70;;;5.30;;
4210;SDS011;2119;48.828;12.396;2022-08-20T04:14:17;6.80;;;6.30;;
4210;SDS011;2119;48.828;12.396;2022-08-20T04:19:17;6.30;;;5.80;;
4210;SDS011;2119;48.828;12.396;2022-08-20T04:24:18;7.00;;;6.40;;
4210;SDS011;2119;48.828;12.396;2022-08-20T04:29:18;7.38;;;6.78;;
4210;SDS011;2119;48.828;12.396;2022-08-20T04:34:18;6.87;;;6.27;;
4210;SDS011;2119;48.828;12.396;2022-08-20T04:39:19;7.20;;;6.70;;
4210;SDS011;2119;48.828;12.396;2022-08-20T04:44:19;7.10;;;6.47;;
4210;SDS011;2119;48.828;12.396;2022-08-20T04:49:20;7.10;;;6.50;;
4210;SDS011;2119;48.828;12.396;2022-08-20T04:54:23;6.37;;;5.97;;
4210;SDS011;2119;48.828;12.396;2022-08-20T04:59:25;7.70;;;7.07;;
4210;SDS011;2119;48.828;12.396;2022-08-20T05:04:25;7.67;;;6.47;;
4210;SDS011;2119;48.828;12.396;2022-08-20T05:09:26;7.87;;;7.27;;
4210;SDS011;2119;48.828;12.396;2022-08-20T05:14:26;8.05;;;7.30;;
4210;SDS011;2119;48.828;12.396;2022-08-20T05:19:28;8.83;;;8.13;;
4210;SDS011;2119;48.828;12.396;2022-08-20T05:24:28;8.87;;;8.13;;
4210;SDS011;2119;48.828;12.396;2022-08-20T05:29:29;9.20;;;8.33;;
4210;SDS011;2119;48.828;12.396;2022-08-20T05:34:30;8.00;;;7.40;;
4210;SDS011;2119;48.828;12.396;2022-08-20T05:39:30;9.03;;;8.23;;
4210;SDS011;2119;48.828;12.396;2022-08-20T05:44:30;8.75;;;7.95;;
4210;SDS011;2119;48.828;12.396;2022-08-20T05:49:30;11.10;;;10.10;;
4210;SDS011;2119;48.828;12.396;2022-08-20T05:54:31;10.97;;;8.30;;
4210;SDS011;2119;48.828;12.396;2022-08-20T05:59:32;10.50;;;9.50;;
4210;SDS011;2119;48.828;12.396;2022-08-20T06:04:35;9.10;;;8.33;;
4210;SDS011;2119;48.828;12.396;2022-08-20T06:09:35;9.83;;;8.93;;
4210;SDS011;2119;48.828;12.396;2022-08-20T06:14:36;8.45;;;7.68;;
4210;SDS011;2119;48.828;12.396;2022-08-20T06:19:36;8.90;;;8.20;;
4210;SDS011;2119;48.828;12.396;2022-08-20T06:24:37;9.20;;;8.37;;
4210;SDS011;2119;48.828;12.396;2022-08-20T06:29:37;9.53;;;8.73;;
4210;SDS011;2119;48.828;12.396;2022-08-20T06:34:37;11.35;;;10.35;;
4210;SDS011;2119;48.828;12.396;2022-08-20T06:39:38;10.68;;;9.57;;
4210;SDS011;2119;48.828;12.396;2022-08-20T06:44:38;10.33;;;9.43;;
4210;SDS011;2119;48.828;12.396;2022-08-20T06:49:38;10.77;;;9.77;;
4210;SDS011;2119;48.828;12.396;2022-08-20T06:54:38;10.45;;;9.55;;
4210;SDS011;2119;48.828;12.396;2022-08-20T06:59:39;10.52;;;9.65;;
4210;SDS011;2119;48.828;12.396;2022-08-20T07:04:39;11.57;;;10.47;;
4210;SDS011;2119;48.828;12.396;2022-08-20T07:09:39;10.57;;;9.60;;
4210;SDS011;2119;48.828;12.396;2022-08-20T07:14:40;10.03;;;9.23;;
4210;SDS011;2119;48.828;12.396;2022-08-20T07:19:40;14.13;;;12.82;;
4210;SDS011;2119;48.828;12.396;2022-08-20T07:24:41;11.63;;;10.50;;
4210;SDS011;2119;48.828;12.396;2022-08-20T07:29:41;12.70;;;11.40;;
4210;SDS011;2119;48.828;12.396;2022-08-20T07:35:01;12.47;;;11.27;;
4210;SDS011;2119;48.828;12.396;2022-08-20T07:40:02;12.40;;;11.30;;
4210;SDS011;2119;48.828;12.396;2022-08-20T07:45:03;10.70;;;9.60;;
4210;SDS011;2119;48.828;12.396;2022-08-20T07:50:04;10.40;;;9.43;;
4210;SDS011;2119;48.828;12.396;2022-08-20T07:55:06;11.80;;;10.70;;
4210;SDS011;2119;48.828;12.396;2022-08-20T08:00:07;11.57;;;10.47;;
4210;SDS011;2119;48.828;12.396;2022-08-20T08:05:08;13.70;;;11.93;;
4210;SDS011;2119;48.828;12.396;2022-08-20T08:10:09;11.90;;;10.70;;
4210;SDS011;2119;48.828;12.396;2022-08-20T08:15:11;14.07;;;12.57;;
4210;SDS011;2119;48.828;12.396;2022-08-20T08:20:14;14.33;;;12.63;;
4210;SDS011;2119;48.828;12.396;2022-08-20T08:25:15;15.27;;;12.83;;
4210;SDS011;2119;48.828;12.396;2022-08-20T08:30:16;16.33;;;13.63;;
4210;SDS011;2119;48.828;12.396;2022-08-20T08:35:17;16.90;;;13.50;;
4210;SDS011;2119;48.828;12.396;2022-08-20T08:40:17;15.57;;;13.03;;
4210;SDS011;2119;48.828;12.396;2022-08-20T08:45:18;15.27;;;13.60;;
4210;SDS011;2119;48.828;12.396;2022-08-20T08:50:27;14.90;;;13.50;;
4210;SDS011;2119;48.828;12.396;2022-08-20T08:55:28;17.43;;;13.50;;
4210;SDS011;2119;48.828;12.396;2022-08-20T09:00:29;18.13;;;16.20;;
4210;SDS011;2119;48.828;12.396;2022-08-20T09:05:40;19.50;;;16.60;;
4210;SDS011;2119;48.828;12.396;2022-08-20T09:10:43;18.67;;;16.47;;
4210;SDS011;2119;48.828;12.396;2022-08-20T09:15:43;21.17;;;16.70;;
4210;SDS011;2119;48.828;12.396;2022-08-20T09:20:44;23.00;;;19.30;;
4210;SDS011;2119;48.828;12.396;2022-08-20T09:25:44;26.50;;;22.30;;
4210;SDS011;2119;48.828;12.396;2022-08-20T09:30:44;40.25;;;28.58;;
4210;SDS011;2119;48.828;12.396;2022-08-20T09:35:45;39.50;;;30.17;;
4210;SDS011;2119;48.828;12.396;2022-08-20T09:40:46;38.60;;;31.60;;
4210;SDS011;2119;48.828;12.396;2022-08-20T09:45:46;37.93;;;31.30;;
4210;SDS011;2119;48.828;12.396;2022-08-20T09:50:47;36.90;;;30.83;;
4210;SDS011;2119;48.828;12.396;2022-08-20T09:55:52;39.43;;;33.40;;
4210;SDS011;2119;48.828;12.396;2022-08-20T10:00:53;38.97;;;31.70;;
4210;SDS011;2119;48.828;12.396;2022-08-20T10:05:53;40.60;;;33.93;;
4210;SDS011;2119;48.828;12.396;2022-08-20T10:10:54;38.85;;;32.00;;
4210;SDS011;2119;48.828;12.396;2022-08-20T10:15:55;41.30;;;32.20;;
4210;SDS011;2119;48.828;12.396;2022-08-20T10:20:55;39.13;;;33.27;;
4210;SDS011;2119;48.828;12.396;2022-08-20T10:25:56;34.10;;;29.93;;
4210;SDS011;2119;48.828;12.396;2022-08-20T10:30:56;42.72;;;33.40;;
4210;SDS011;2119;48.828;12.396;2022-08-20T10:35:56;38.23;;;32.13;;
4210;SDS011;2119;48.828;12.396;2022-08-20T10:40:56;37.70;;;32.13;;
4210;SDS011;2119;48.828;12.396;2022-08-20T10:45:57;34.03;;;30.33;;
4210;SDS011;2119;48.828;12.396;2022-08-20T10:50:57;37.97;;;30.67;;
4210;SDS011;2119;48.828;12.396;2022-08-20T10:55:57;36.47;;;31.40;;
4210;SDS011;2119;48.828;12.396;2022-08-20T11:00:58;36.50;;;32.60;;
4210;SDS011;2119;48.828;12.396;2022-08-20T11:05:58;35.77;;;31.87;;
4210;SDS011;2119;48.828;12.396;2022-08-20T11:10:58;33.03;;;28.90;;
4210;SDS011;2119;48.828;12.396;2022-08-20T11:15:59;35.10;;;29.43;;
4210;SDS011;2119;48.828;12.396;2022-08-20T11:20:59;31.97;;;28.37;;
4210;SDS011;2119;48.828;12.396;2022-08-20T11:26:00;35.60;;;30.40;;
4210;SDS011;2119;48.828;12.396;2022-08-20T11:31:00;32.53;;;29.02;;
4210;SDS011;2119;48.828;12.396;2022-08-20T11:36:01;31.13;;;27.90;;
4210;SDS011;2119;48.828;12.396;2022-08-20T11:41:01;30.40;;;27.20;;
4210;SDS011;2119;48.828;12.396;2022-08-20T11:46:01;29.27;;;26.17;;
4210;SDS011;2119;48.828;12.396;2022-08-20T11:51:02;29.73;;;25.67;;
4210;SDS011;2119;48.828;12.396;2022-08-20T11:56:03;28.00;;;25.00;;
4210;SDS011;2119;48.828;12.396;2022-08-20T12:01:03;25.10;;;22.63;;
4210;SDS011;2119;48.828;12.396;2022-08-20T12:06:04;24.20;;;21.55;;
4210;SDS011;2119;48.828;12.396;2022-08-20T12:11:04;23.57;;;20.80;;
4210;SDS011;2119;48.828;12.396;2022-08-20T12:16:05;23.77;;;21.30;;
4210;SDS011;2119;48.828;12.396;2022-08-20T12:21:05;22.03;;;19.93;;
4210;SDS011;2119;48.828;12.396;2022-08-20T12:26:06;22.02;;;19.67;;
4210;SDS011;2119;48.828;12.396;2022-08-20T12:31:08;21.83;;;19.30;;
4210;SDS011;2119;48.828;12.396;2022-08-20T12:36:08;18.27;;;16.47;;
4210;SDS011;2119;48.828;12.396;2022-08-20T12:41:08;18.30;;;16.40;;
4210;SDS011;2119;48.828;12.396;2022-08-20T12:46:08;15.48;;;13.95;;
4210;SDS011;2119;48.828;12.396;2022-08-20T12:51:08;17.70;;;15.90;;
4210;SDS011;2119;48.828;12.396;2022-08-20T12:56:09;16.92;;;15.23;;
4210;SDS011;2119;48.828;12.396;2022-08-20T13:01:09;18.15;;;15.98;;
4210;SDS011;2119;48.828;12.396;2022-08-20T13:06:09;17.70;;;15.90;;
4210;SDS011;2119;48.828;12.396;2022-08-20T13:11:09;17.35;;;15.65;;
4210;SDS011;2119;48.828;12.396;2022-08-20T13:16:10;16.67;;;15.13;;
4210;SDS011;2119;48.828;12.396;2022-08-20T13:21:10;16.88;;;15.27;;
4210;SDS011;2119;48.828;12.396;2022-08-20T13:26:10;15.70;;;14.20;;
4210;SDS011;2119;48.828;12.396;2022-08-20T13:31:12;17.40;;;15.77;;
4210;SDS011;2119;48.828;12.396;2022-08-20T13:36:12;18.37;;;16.67;;
4210;SDS011;2119;48.828;12.396;2022-08-20T13:41:14;20.70;;;18.70;;
4210;SDS011;2119;48.828;12.396;2022-08-20T13:46:14;18.90;;;17.10;;
4210;SDS011;2119;48.828;12.396;2022-08-20T13:51:14;18.80;;;17.00;;
4210;SDS011;2119;48.828;12.396;2022-08-20T13:56:15;18.63;;;16.80;;
4210;SDS011;2119;48.828;12.396;2022-08-20T14:01:15;16.98;;;15.35;;
4210;SDS011;2119;48.828;12.396;2022-08-20T14:06:15;18.27;;;16.50;;
4210;SDS011;2119;48.828;12.396;2022-08-20T14:11:15;20.03;;;18.10;;
4210;SDS011;2119;48.828;12.396;2022-08-20T14:16:16;17.20;;;15.50;;
4210;SDS011;2119;48.828;12.396;2022-08-20T14:21:17;18.60;;;15.80;;
4210;SDS011;2119;48.828;12.396;2022-08-20T14:26:17;17.13;;;15.50;;
4210;SDS011;2119;48.828;12.396;2022-08-20T14:31:18;18.87;;;16.93;;
4210;SDS011;2119;48.828;12.396;2022-08-20T14:36:18;17.03;;;15.43;;
4210;SDS011;2119;48.828;12.396;2022-08-20T14:41:19;18.53;;;16.73;;
4210;SDS011;2119;48.828;12.396;2022-08-20T14:46:19;18.45;;;16.60;;
4210;SDS011;2119;48.828;12.396;2022-08-20T14:51:19;17.58;;;16.00;;
4210;SDS011;2119;48.828;12.396;2022-08-20T14:56:19;19.60;;;17.67;;
4210;SDS011;2119;48.828;12.396;2022-08-20T15:01:20;16.90;;;15.40;;
4210;SDS011;2119;48.828;12.396;2022-08-20T15:06:20;18.80;;;16.90;;
4210;SDS011;2119;48.828;12.396;2022-08-20T15:11:22;18.40;;;16.30;;
4210;SDS011;2119;48.828;12.396;2022-08-20T15:16:24;17.13;;;15.50;;
4210;SDS011;2119;48.828;12.396;2022-08-20T15:21:24;18.80;;;16.90;;
4210;SDS011;2119;48.828;12.396;2022-08-20T15:26:25;18.40;;;16.67;;
4210;SDS011;2119;48.828;12.396;2022-08-20T15:31:25;16.93;;;15.23;;
4210;SDS011;2119;48.828;12.396;2022-08-20T15:36:25;17.47;;;15.70;;
4210;SDS011;2119;48.828;12.396;2022-08-20T15:41:26;21.73;;;16.93;;
4210;SDS011;2119;48.828;12.396;2022-08-20T15:46:29;17.40;;;15.60;;
4210;SDS011;2119;48.828;12.396;2022-08-20T15:51:37;16.33;;;14.73;;
4210;SDS011;2119;48.828;12.396;2022-08-20T16:02:11;17.13;;;15.30;;
4210;SDS011;2119;48.828;12.396;2022-08-20T16:07:16;17.37;;;15.70;;
4210;SDS011;2119;48.828;12.396;2022-08-20T16:12:20;17.20;;;15.50;;
4210;SDS011;2119;48.828;12.396;2022-08-20T16:17:30;18.27;;;16.47;;
4210;SDS011;2119;48.828;12.396;2022-08-20T16:22:31;18.60;;;16.90;;
4210;SDS011;2119;48.828;12.396;2022-08-20T16:27:34;19.10;;;17.27;;
4210;SDS011;2119;48.828;12.396;2022-08-20T16:37:46;19.60;;;17.50;;
4210;SDS011;2119;48.828;12.396;2022-08-20T16:42:52;19.20;;;17.30;;
4210;SDS011;2119;48.828;12.396;2022-08-20T16:47:55;19.63;;;17.70;;
4210;SDS011;2119;48.828;12.396;2022-08-20T16:52:57;19.60;;;17.50;;
4210;SDS011;2119;48.828;12.396;2022-08-20T16:57:58;20.50;;;18.27;;
4210;SDS011;2119;48.828;12.396;2022-08-20T17:03:00;27.50;;;18.33;;
4210;SDS011;2119;48.828;12.396;2022-08-20T17:08:03;21.37;;;17.37;;
4210;SDS011;2119;48.828;12.396;2022-08-20T17:13:20;21.60;;;17.80;;
4210;SDS011;2119;48.828;12.396;2022-08-20T17:18:22;18.47;;;16.77;;
4210;SDS011;2119;48.828;12.396;2022-08-20T17:23:23;20.37;;;18.17;;
4210;SDS011;2119;48.828;12.396;2022-08-20T17:28:24;21.27;;;19.07;;
4210;SDS011;2119;48.828;12.396;2022-08-20T17:38:59;15.33;;;14.13;;
4210;SDS011;2119;48.828;12.396;2022-08-20T17:43:56;15.90;;;14.50;;
4210;SDS011;2119;48.828;12.396;2022-08-20T17:48:56;17.93;;;16.30;;
4210;SDS011;2119;48.828;12.396;2022-08-20T17:54:00;15.60;;;14.30;;
4210;SDS011;2119;48.828;12.396;2022-08-20T17:59:03;15.03;;;13.77;;
4210;SDS011;2119;48.828;12.396;2022-08-20T18:04:05;14.13;;;12.80;;
4210;SDS011;2119;48.828;12.396;2022-08-20T18:19:15;11.10;;;10.30;;
4210;SDS011;2119;48.828;12.396;2022-08-20T18:24:23;11.27;;;10.37;;
4210;SDS011;2119;48.828;12.396;2022-08-20T18:29:25;12.50;;;11.40;;
4210;SDS011;2119;48.828;12.396;2022-08-20T18:39:28;12.10;;;10.90;;
4210;SDS011;2119;48.828;12.396;2022-08-20T18:44:45;12.23;;;11.13;;
4210;SDS011;2119;48.828;12.396;2022-08-20T18:49:45;12.67;;;11.57;;
4210;SDS011;2119;48.828;12.396;2022-08-20T18:54:52;13.10;;;12.03;;
4210;SDS011;2119;48.828;12.396;2022-08-20T18:59:55;13.57;;;12.43;;
4210;SDS011;2119;48.828;12.396;2022-08-20T19:04:58;11.70;;;10.73;;
4210;SDS011;2119;48.828;12.396;2022-08-20T19:20:14;9.43;;;8.53;;
4210;SDS011;2119;48.828;12.396;2022-08-20T19:25:20;9.00;;;8.10;;
4210;SDS011;2119;48.828;12.396;2022-08-20T19:30:55;9.00;;;8.40;;
4210;SDS011;2119;48.828;12.396;2022-08-20T19:35:48;8.77;;;8.17;;
4210;SDS011;2119;48.828;12.396;2022-08-20T19:40:48;8.05;;;7.45;;
4210;SDS011;2119;48.828;12.396;2022-08-20T19:45:50;10.30;;;9.10;;
4210;SDS011;2119;48.828;12.396;2022-08-20T19:56:13;8.73;;;7.67;;
4210;SDS011;2119;48.828;12.396;2022-08-20T20:01:17;8.67;;;8.07;;
4210;SDS011;2119;48.828;12.396;2022-08-20T20:06:18;8.97;;;8.17;;
4210;SDS011;2119;48.828;12.396;2022-08-20T20:16:41;10.40;;;9.60;;
4210;SDS011;2119;48.828;12.396;2022-08-20T20:21:44;11.13;;;10.13;;
4210;SDS011;2119;48.828;12.396;2022-08-20T20:26:46;10.10;;;9.20;;
4210;SDS011;2119;48.828;12.396;2022-08-20T20:49:34;8.40;;;7.80;;
4210;SDS011;2119;48.828;12.396;2022-08-20T20:54:40;9.00;;;8.33;;
4210;SDS011;2119;48.828;12.396;2022-08-20T20:59:41;8.80;;;8.20;;
4210;SDS011;2119;48.828;12.396;2022-08-20T21:04:42;8.70;;;8.00;;
4210;SDS011;2119;48.828;12.396;2022-08-20T21:09:43;11.83;;;7.93;;
4210;SDS011;2119;48.828;12.396;2022-08-20T21:14:44;7.47;;;6.97;;
4210;SDS011;2119;48.828;12.396;2022-08-20T21:19:44;7.93;;;7.27;;
4210;SDS011;2119;48.828;12.396;2022-08-20T21:24:44;7.88;;;7.28;;
4210;SDS011;2119;48.828;12.396;2022-08-20T21:29:45;9.50;;;8.70;;
4210;SDS011;2119;48.828;12.396;2022-08-20T21:34:45;9.02;;;8.27;;
4210;SDS011;2119;48.828;12.396;2022-08-20T21:39:45;9.03;;;8.33;;
4210;SDS011;2119;48.828;12.396;2022-08-20T21:44:46;9.00;;;8.30;;
4210;SDS011;2119;48.828;12.396;2022-08-20T21:49:46;11.10;;;9.63;;
4210;SDS011;2119;48.828;12.396;2022-08-20T21:54:47;10.40;;;9.50;;
4210;SDS011;2119;48.828;12.396;2022-08-20T21:59:47;10.85;;;9.00;;
4210;SDS011;2119;48.828;12.396;2022-08-20T22:04:48;9.63;;;8.80;;
4210;SDS011;2119;48.828;12.396;2022-08-20T22:09:50;10.63;;;9.60;;
4210;SDS011;2119;48.828;12.396;2022-08-20T22:14:50;10.47;;;9.07;;
4210;SDS011;2119;48.828;12.396;2022-08-20T22:19:51;14.20;;;8.93;;
4210;SDS011;2119;48.828;12.396;2022-08-20T22:24:51;11.03;;;9.00;;
4210;SDS011;2119;48.828;12.396;2022-08-20T22:29:51;9.77;;;8.87;;
4210;SDS011;2119;48.828;12.396;2022-08-20T22:34:52;9.45;;;8.55;;
4210;SDS011;2119;48.828;12.396;2022-08-20T22:39:52;9.50;;;8.77;;
4210;SDS011;2119;48.828;12.396;2022-08-20T22:44:53;11.50;;;8.80;;
4210;SDS011;2119;48.828;12.396;2022-08-20T22:49:54;10.33;;;9.40;;
4210;SDS011;2119;48.828;12.396;2022-08-20T22:54:55;8.67;;;8.00;;
4210;SDS011;2119;48.828;12.396;2022-08-20T22:59:55;9.30;;;8.60;;
4210;SDS011;2119;48.828;12.396;2022-08-20T23:04:55;10.03;;;9.13;;
4210;SDS011;2119;48.828;12.396;2022-08-20T23:09:56;9.80;;;8.80;;
4210;SDS011;2119;48.828;12.396;2022-08-20T23:14:56;10.82;;;9.73;;
4210;SDS011;2119;48.828;12.396;2022-08-20T23:19:56;9.90;;;8.90;;
4210;SDS011;2119;48.828;12.396;2022-08-20T23:24:56;10.23;;;9.43;;
4210;SDS011;2119;48.828;12.396;2022-08-20T23:29:57;10.82;;;9.82;;
4210;SDS011;2119;48.828;12.396;2022-08-20T23:34:57;13.13;;;11.83;;
4210;SDS011;2119;48.828;12.396;2022-08-20T23:39:58;11.93;;;10.70;;
4210;SDS011;2119;48.828;12.396;2022-08-20T23:44:59;13.27;;;11.87;;
4210;SDS011;2119;48.828;12.396;2022-08-20T23:49:59;13.53;;;12.10;;
4210;SDS011;2119;48.828;12.396;2022-08-20T23:54:59;16.40;;;12.33;;
4210;SDS011;2119;48.828;12.396;2022-08-20T23:59:59;14.55;;;13.00;;
